This is the latest recevied weather packets stored in our database for station/object VK2HIM-1. If no packets are shown the sender has not sent any weather packets the latest 10 day(s).
| Time | Temp. | Humidity | Pressure | Rain* | Wind** | Luminosity | Snow |
|---|---|---|---|---|---|---|---|
| 1778004226 | 12.22° C | 81% | 1019.9 hPa | 0 mm | - | - | - |
| 1778002426 | 12.22° C | 81% | 1020.1 hPa | 0 mm | - | - | - |
| 1778000626 | 12.78° C | 79% | 1020.2 hPa | 0 mm | - | - | - |
| 1777998826 | 13.33° C | 78% | 1020.2 hPa | 0 mm | - | - | - |
| 1777997026 | 13.33° C | 76% | 1020.4 hPa | 0 mm | - | - | - |
| 1777995226 | 13.89° C | 76% | 1020.7 hPa | 0 mm | - | - | - |
| 1777993426 | 13.89° C | 74% | 1020.9 hPa | 0 mm | - | - | - |
| 1777991626 | 13.89° C | 75% | 1021 hPa | 0 mm | - | - | - |
| 1777989826 | 13.33° C | 77% | 1021.2 hPa | 0 mm | - | - | - |
| 1777988030 | 13.33° C | 77% | 1021.2 hPa | 0 mm | - | - | - |
| 1777986230 | 13.33° C | 77% | 1021.2 hPa | 0 mm | - | - | - |
| 1777984429 | 13.33° C | 77% | 1021.4 hPa | 0 mm | - | - | - |
| 1777982629 | 13.89° C | 76% | 1021.6 hPa | 0 mm | - | - | - |
| 1777980829 | 13.89° C | 78% | 1021.5 hPa | 0 mm | - | - | - |
| 1777979029 | 12.78° C | 81% | 1021.3 hPa | 0 mm | - | - | - |
| 1777977229 | 13.33° C | 80% | 1021 hPa | 0 mm | - | - | - |
| 1777975427 | 13.33° C | 82% | 1020.8 hPa | 0 mm | - | - | - |
| 1777973627 | 13.33° C | 83% | 1020.5 hPa | 0 mm | - | - | - |
| 1777971827 | 13.89° C | 83% | 1020.2 hPa | 0 mm | - | - | - |
| 1777970027 | 14.44° C | 81% | 1019.7 hPa | 0 mm | - | - | - |
| 1777968227 | 15° C | 78% | 1019.2 hPa | 0 mm | - | - | - |
| 1777966427 | 16.67° C | 75% | 1018.8 hPa | 0 mm | - | - | - |
| 1777964627 | 19.44° C | 66% | 1018.3 hPa | 0 mm | - | - | - |
| 1777962830 | 21.67° C | 62% | 1017.9 hPa | 0 mm | - | - | - |
| 1777961030 | 23.33° C | 59% | 1017.5 hPa | 0 mm | - | - | - |
* Rain latest hour (hover to see other rain measurements)
** Current wind speed in m/s (hover to see current wind gust speed)